createdAt,value
2023-03-06T00:00:25.845Z,2.80
2023-03-06T00:02:53.140Z,3.90
2023-03-06T00:05:20.609Z,3.15
2023-03-06T00:07:47.857Z,4.28
2023-03-06T00:10:16.923Z,6.10
2023-03-06T00:12:44.244Z,4.75
2023-03-06T00:15:11.776Z,4.85
2023-03-06T00:17:39.156Z,3.27
2023-03-06T00:20:06.903Z,5.55
2023-03-06T00:22:34.619Z,4.32
2023-03-06T00:25:01.939Z,4.63
2023-03-06T00:27:29.345Z,4.60
2023-03-06T00:29:57.257Z,8.00
2023-03-06T00:32:24.905Z,5.35
2023-03-06T00:34:52.570Z,7.55
2023-03-06T00:37:20.047Z,6.87
2023-03-06T00:39:47.367Z,6.53
2023-03-06T00:42:14.705Z,5.00
2023-03-06T00:44:41.981Z,5.30
2023-03-06T00:47:09.369Z,5.40
2023-03-06T00:49:36.588Z,9.18
2023-03-06T00:52:03.903Z,6.43
2023-03-06T00:54:31.117Z,7.43
2023-03-06T00:56:58.349Z,5.93
2023-03-06T00:59:25.610Z,7.95
2023-03-06T01:01:53.076Z,9.55
2023-03-06T01:04:20.332Z,5.88
2023-03-06T01:06:47.559Z,5.75
2023-03-06T01:09:14.786Z,5.88
2023-03-06T01:11:42.041Z,5.32
2023-03-06T01:14:09.264Z,7.65
2023-03-06T01:16:37.049Z,9.57
2023-03-06T01:19:04.386Z,7.75
2023-03-06T01:21:31.616Z,8.67
2023-03-06T01:23:58.869Z,6.50
2023-03-06T01:26:26.100Z,8.00
2023-03-06T01:28:53.297Z,7.50
2023-03-06T01:31:20.569Z,7.63
2023-03-06T01:33:48.485Z,6.25
2023-03-06T01:36:15.755Z,7.03
2023-03-06T01:38:43.066Z,6.68
2023-03-06T01:41:10.962Z,7.50
2023-03-06T01:43:38.807Z,4.78
2023-03-06T01:46:24.585Z,4.80
2023-03-06T01:48:56.088Z,6.77
2023-03-06T01:51:24.196Z,4.72
2023-03-06T01:53:51.460Z,5.05
2023-03-06T01:56:18.686Z,6.80
2023-03-06T01:58:46.265Z,2.63
2023-03-06T02:01:13.955Z,5.47
2023-03-06T02:03:41.363Z,7.03
2023-03-06T02:06:08.644Z,4.63
2023-03-06T02:08:35.860Z,2.85
2023-03-06T02:11:07.074Z,5.68
2023-03-06T02:13:34.381Z,4.38
2023-03-06T02:16:01.814Z,3.78
2023-03-06T02:18:29.424Z,5.00
2023-03-06T02:20:58.303Z,5.30
2023-03-06T02:23:28.534Z,3.97
2023-03-06T02:25:55.774Z,3.50
2023-03-06T02:28:23.465Z,5.22
2023-03-06T02:30:51.303Z,6.78
2023-03-06T02:33:19.286Z,7.80
2023-03-06T02:36:06.797Z,4.43
2023-03-06T02:38:35.656Z,6.07
2023-03-06T02:41:03.000Z,5.10
2023-03-06T02:43:30.614Z,5.63
2023-03-06T02:45:57.880Z,5.05
2023-03-06T02:48:25.108Z,4.30
2023-03-06T02:50:52.361Z,4.60
2023-03-06T02:53:19.733Z,4.97
2023-03-06T02:55:47.048Z,5.05
2023-03-06T02:58:14.289Z,3.92
2023-03-06T03:00:41.569Z,4.38
2023-03-06T03:03:08.920Z,5.03
2023-03-06T03:05:36.103Z,3.50
2023-03-06T03:08:03.358Z,5.10
2023-03-06T03:10:30.584Z,4.32
2023-03-06T03:12:58.264Z,5.18
2023-03-06T03:15:25.707Z,2.83
2023-03-06T03:17:52.971Z,3.65
2023-03-06T03:20:21.099Z,3.88
2023-03-06T03:22:49.420Z,3.00
2023-03-06T03:25:16.679Z,1.85
2023-03-06T03:27:43.896Z,4.30
2023-03-06T03:30:11.564Z,2.53
2023-03-06T03:32:38.799Z,6.95
2023-03-06T03:35:06.567Z,7.20
2023-03-06T03:37:34.748Z,3.00
2023-03-06T03:40:02.076Z,4.07
2023-03-06T03:42:29.407Z,2.80
2023-03-06T03:44:56.935Z,6.85
2023-03-06T03:47:24.160Z,5.18
2023-03-06T03:49:51.357Z,3.00
2023-03-06T03:52:18.600Z,2.60
2023-03-06T03:54:45.808Z,4.23
2023-03-06T03:57:13.019Z,3.80
2023-03-06T03:59:40.258Z,4.27
2023-03-06T04:02:07.574Z,3.00
2023-03-06T04:04:34.907Z,3.45
2023-03-06T04:07:02.202Z,3.13
2023-03-06T04:09:29.446Z,3.60
2023-03-06T04:11:56.659Z,4.20
2023-03-06T04:14:23.884Z,3.28
2023-03-06T04:16:51.159Z,3.88
2023-03-06T04:19:18.440Z,2.55
2023-03-06T04:21:45.648Z,3.38
2023-03-06T04:24:12.940Z,5.53
2023-03-06T04:26:40.223Z,2.60
2023-03-06T04:29:07.520Z,8.07
2023-03-06T04:31:34.841Z,3.90
2023-03-06T04:34:02.272Z,4.10
2023-03-06T04:36:33.082Z,4.13
2023-03-06T04:39:00.662Z,2.50
2023-03-06T04:41:27.948Z,3.67
2023-03-06T04:43:55.350Z,4.13
2023-03-06T04:46:22.824Z,4.47
2023-03-06T04:48:50.017Z,3.00
2023-03-06T04:51:17.299Z,2.80
2023-03-06T04:53:44.570Z,3.83
2023-03-06T04:56:11.877Z,3.08
2023-03-06T04:58:39.150Z,2.40
2023-03-06T05:01:06.542Z,3.30
2023-03-06T05:03:33.825Z,2.67
2023-03-06T05:06:01.091Z,4.30
2023-03-06T05:08:28.422Z,3.72
2023-03-06T05:10:59.242Z,3.25
2023-03-06T05:13:26.586Z,3.28
2023-03-06T05:15:53.839Z,5.00
2023-03-06T05:18:21.176Z,3.03
2023-03-06T05:20:48.448Z,3.45
2023-03-06T05:23:15.723Z,3.10
2023-03-06T05:25:43.085Z,2.77
2023-03-06T05:28:10.355Z,3.92
2023-03-06T05:30:37.593Z,3.47
2023-03-06T05:33:04.855Z,3.75
2023-03-06T05:35:32.466Z,3.58
2023-03-06T05:37:59.751Z,4.30
2023-03-06T05:40:27.086Z,2.40
2023-03-06T05:42:54.342Z,3.42
2023-03-06T05:45:21.600Z,3.67
2023-03-06T05:47:48.999Z,3.10
2023-03-06T05:50:16.380Z,2.83
2023-03-06T05:52:43.770Z,4.53
2023-03-06T05:55:11.984Z,3.33
2023-03-06T05:57:39.389Z,3.65
2023-03-06T06:00:07.280Z,2.58
2023-03-06T06:02:34.731Z,6.18
2023-03-06T06:05:02.820Z,9.07
2023-03-06T06:07:30.169Z,9.30
2023-03-06T06:09:57.563Z,10.52
2023-03-06T06:12:24.935Z,9.07
2023-03-06T06:14:52.312Z,6.45
2023-03-06T06:17:19.676Z,7.68
2023-03-06T06:19:46.981Z,7.30
2023-03-06T06:22:14.201Z,4.80
2023-03-06T06:24:41.484Z,6.70
2023-03-06T06:27:09.048Z,2.75
2023-03-06T06:29:36.336Z,3.63
2023-03-06T06:32:03.591Z,3.65
2023-03-06T06:34:31.901Z,6.15
2023-03-06T06:36:59.208Z,6.88
2023-03-06T06:39:26.520Z,7.05
2023-03-06T06:42:09.700Z,4.18
2023-03-06T06:44:41.013Z,5.63
2023-03-06T06:47:25.309Z,16.13
2023-03-06T06:49:53.314Z,13.40
2023-03-06T06:52:20.580Z,41.30
2023-03-06T06:54:47.817Z,49.33
2023-03-06T06:57:15.146Z,284.50
2023-03-06T06:59:42.453Z,211.68
2023-03-06T07:02:11.422Z,85.97
2023-03-06T07:04:42.468Z,22.77
2023-03-06T07:07:16.424Z,9.65
2023-03-06T07:09:43.719Z,10.38
2023-03-06T07:12:11.682Z,11.50
2023-03-06T07:14:41.332Z,11.80
2023-03-06T07:17:09.278Z,19.87
2023-03-06T07:19:38.008Z,11.85
2023-03-06T07:22:05.963Z,6.03
2023-03-06T07:24:33.231Z,6.43
2023-03-06T07:27:00.417Z,3.00
2023-03-06T07:29:27.650Z,3.17
2023-03-06T07:31:55.029Z,3.03
2023-03-06T07:34:22.699Z,3.88
2023-03-06T07:36:50.892Z,5.00
2023-03-06T07:39:18.425Z,4.65
2023-03-06T07:41:45.631Z,3.73
2023-03-06T07:44:12.951Z,3.72
2023-03-06T07:46:40.245Z,4.37
2023-03-06T07:49:07.524Z,3.57
2023-03-06T07:51:34.745Z,5.03
2023-03-06T07:54:02.019Z,4.80
2023-03-06T07:56:29.335Z,4.43
2023-03-06T07:58:57.170Z,3.73
2023-03-06T08:01:24.566Z,3.70
2023-03-06T08:03:52.190Z,3.80
2023-03-06T08:06:20.488Z,4.10
2023-03-06T08:08:47.941Z,4.65
2023-03-06T08:11:15.659Z,3.30
2023-03-06T08:13:42.883Z,4.30
2023-03-06T08:16:10.258Z,4.30
2023-03-06T08:18:39.602Z,4.28
2023-03-06T08:21:07.634Z,4.73
2023-03-06T08:23:35.125Z,3.78
2023-03-06T08:26:03.368Z,4.03
2023-03-06T08:28:30.626Z,5.15
2023-03-06T08:30:57.851Z,6.28
2023-03-06T08:33:25.168Z,3.95
2023-03-06T08:35:53.106Z,5.13
2023-03-06T08:38:20.420Z,4.72
2023-03-06T08:40:47.827Z,6.13
2023-03-06T08:43:15.209Z,5.45
2023-03-06T08:45:42.618Z,4.45
2023-03-06T08:48:13.147Z,5.00
2023-03-06T08:50:41.712Z,4.60
2023-03-06T08:53:09.433Z,4.70
2023-03-06T08:55:37.535Z,4.00
2023-03-06T08:58:04.896Z,4.57
2023-03-06T09:00:32.783Z,6.30
2023-03-06T09:03:00.143Z,4.50
2023-03-06T09:05:27.468Z,6.15
2023-03-06T09:07:55.477Z,5.90
2023-03-06T09:10:23.457Z,4.70
2023-03-06T09:12:53.724Z,5.75
2023-03-06T09:15:22.027Z,4.28
2023-03-06T09:17:49.477Z,5.15
2023-03-06T09:20:16.914Z,5.60
2023-03-06T09:22:45.586Z,6.45
2023-03-06T09:25:20.296Z,12.57
2023-03-06T09:27:55.443Z,4.53
2023-03-06T09:30:29.412Z,5.15
2023-03-06T09:32:57.097Z,5.88
2023-03-06T09:35:24.403Z,5.82
2023-03-06T09:37:51.635Z,7.00
2023-03-06T09:40:27.093Z,4.93
2023-03-06T09:42:54.331Z,6.22
2023-03-06T09:45:21.856Z,6.40
2023-03-06T09:47:49.123Z,7.72
2023-03-06T09:50:19.112Z,6.18
2023-03-06T09:52:52.289Z,6.60
2023-03-06T09:55:20.140Z,7.55
2023-03-06T09:57:51.274Z,6.63
2023-03-06T10:00:27.795Z,6.50
2023-03-06T10:02:57.129Z,9.38
2023-03-06T10:05:25.429Z,8.65
2023-03-06T10:08:06.539Z,6.88
2023-03-06T10:10:41.618Z,6.30
2023-03-06T10:13:27.745Z,8.13
2023-03-06T10:15:56.046Z,7.78
2023-03-06T10:18:23.295Z,7.80
2023-03-06T10:20:52.385Z,9.40
2023-03-06T10:23:28.444Z,8.02
2023-03-06T10:26:02.392Z,6.95
2023-03-06T10:28:30.554Z,8.52
2023-03-06T10:30:57.857Z,6.82
2023-03-06T10:33:34.504Z,7.70
2023-03-06T11:09:15.908Z,3.90
2023-03-06T11:11:43.153Z,4.53
2023-03-06T11:14:20.809Z,6.00
2023-03-06T11:16:52.976Z,7.15
2023-03-06T11:19:20.281Z,5.70
2023-03-06T11:21:59.593Z,4.17
2023-03-06T11:24:26.948Z,3.50
2023-03-06T11:26:57.844Z,5.35
2023-03-06T11:29:38.474Z,4.88
2023-03-06T11:32:09.225Z,4.15
2023-03-06T11:34:39.637Z,2.92
2023-03-06T11:37:07.070Z,3.15
2023-03-06T11:39:53.398Z,3.38
2023-03-06T11:42:32.807Z,3.90
2023-03-06T11:45:06.078Z,4.10
2023-03-06T11:47:34.541Z,3.25
2023-03-06T11:50:06.769Z,2.85
2023-03-06T11:52:46.799Z,3.30
2023-03-06T11:55:16.333Z,2.75
2023-03-06T11:57:52.461Z,2.38
2023-03-06T12:00:23.683Z,3.58
2023-03-06T12:03:02.989Z,2.78
2023-03-06T12:05:33.813Z,3.10
2023-03-06T12:08:13.241Z,3.78
2023-03-06T12:11:00.725Z,3.47
2023-03-06T12:13:37.137Z,2.03
2023-03-06T12:16:24.420Z,3.45
2023-03-06T12:19:08.228Z,2.67
2023-03-06T12:21:58.777Z,2.33
2023-03-06T12:24:25.988Z,4.13
2023-03-06T12:27:09.061Z,7.78
2023-03-06T12:29:51.373Z,1.65
2023-03-06T12:32:22.601Z,6.53
2023-03-06T12:35:08.796Z,7.20
2023-03-06T12:37:54.947Z,8.20
2023-03-06T12:40:38.251Z,2.92
2023-03-06T12:43:24.772Z,2.67
2023-03-06T12:45:52.928Z,2.80
2023-03-06T12:48:22.077Z,3.33
2023-03-06T12:50:50.128Z,4.40
2023-03-06T12:53:27.593Z,4.93
2023-03-06T12:55:54.979Z,3.47
2023-03-06T12:58:31.409Z,5.22
2023-03-06T13:01:07.893Z,4.38
2023-03-06T13:03:35.569Z,5.03
2023-03-06T13:06:05.880Z,5.85
2023-03-06T13:08:36.077Z,2.42
2023-03-06T13:11:12.486Z,3.08
2023-03-06T13:13:43.840Z,5.85
2023-03-06T13:16:22.540Z,5.28
2023-03-06T13:18:51.583Z,3.47
2023-03-06T13:21:37.607Z,4.00
2023-03-06T13:24:05.509Z,2.25
2023-03-06T13:26:32.856Z,2.47
2023-03-06T13:29:00.213Z,2.57
2023-03-06T13:31:28.267Z,4.63
2023-03-06T13:33:59.838Z,7.75
2023-03-06T13:36:28.040Z,4.13
2023-03-06T13:39:13.605Z,3.58
2023-03-06T13:41:59.557Z,5.13
2023-03-06T13:44:27.027Z,9.45
2023-03-06T13:47:01.302Z,5.25
2023-03-06T13:49:28.664Z,3.72
2023-03-06T13:51:55.924Z,3.13
2023-03-06T13:54:28.896Z,4.68
2023-03-06T13:57:02.209Z,2.20
2023-03-06T13:59:35.489Z,2.70
2023-03-06T14:02:14.990Z,2.10
2023-03-06T14:04:45.462Z,3.45
2023-03-06T14:07:19.880Z,3.20
2023-03-06T14:09:48.007Z,2.92
2023-03-06T14:12:19.449Z,2.35
2023-03-06T14:14:49.408Z,3.10
2023-03-06T14:17:24.740Z,2.80
2023-03-06T14:19:52.014Z,4.43
2023-03-06T14:22:19.863Z,2.05
2023-03-06T14:24:52.984Z,2.80
2023-03-06T14:27:20.280Z,3.70
2023-03-06T14:29:48.823Z,3.78
2023-03-06T14:32:18.965Z,2.03
2023-03-06T14:34:46.359Z,3.70
2023-03-06T14:37:20.818Z,3.92
2023-03-06T14:39:48.187Z,2.80
2023-03-06T14:42:15.469Z,3.15
2023-03-06T14:44:42.864Z,4.20
2023-03-06T14:47:29.022Z,3.60
2023-03-06T14:50:15.201Z,3.45
2023-03-06T14:52:42.401Z,5.05
2023-03-06T14:55:13.011Z,4.00
2023-03-06T14:57:40.370Z,3.85
2023-03-06T15:00:08.183Z,6.35
2023-03-06T15:02:35.515Z,2.77
2023-03-06T15:05:07.120Z,5.50
2023-03-06T15:07:35.216Z,4.57
2023-03-06T15:10:02.457Z,4.15
2023-03-06T15:12:29.903Z,2.43
2023-03-06T15:14:57.904Z,2.97
2023-03-06T15:17:26.486Z,2.10
2023-03-06T15:19:54.675Z,3.00
2023-03-06T15:22:28.004Z,3.80
2023-03-06T15:24:56.374Z,3.75
2023-03-06T15:27:27.772Z,4.22
2023-03-06T15:29:55.093Z,2.97
2023-03-06T15:32:25.492Z,4.15
2023-03-06T15:35:11.632Z,2.70
2023-03-06T15:37:38.841Z,3.58
2023-03-06T15:40:09.478Z,6.18
2023-03-06T15:42:36.853Z,5.18
2023-03-06T15:45:20.308Z,2.00
2023-03-06T15:47:48.265Z,9.80
2023-03-06T15:50:19.421Z,10.20
2023-03-06T15:52:47.008Z,7.25
2023-03-06T15:55:14.530Z,5.03
2023-03-06T15:57:49.298Z,13.52
2023-03-06T16:00:28.313Z,3.78
2023-03-06T16:02:56.720Z,5.35
2023-03-06T16:05:24.369Z,6.15
2023-03-06T16:07:51.594Z,3.53
2023-03-06T16:10:19.635Z,4.70
2023-03-06T16:12:50.592Z,2.45
2023-03-06T16:15:27.429Z,4.10
2023-03-06T16:17:54.647Z,4.10
2023-03-06T16:20:22.494Z,4.25
2023-03-06T16:22:49.861Z,2.83
2023-03-06T16:25:17.681Z,3.85
2023-03-06T16:27:46.712Z,2.58
2023-03-06T16:30:20.246Z,3.20
2023-03-06T16:32:47.566Z,5.30
2023-03-06T16:35:14.929Z,4.85
2023-03-06T16:37:42.504Z,3.40
2023-03-06T16:40:19.029Z,7.93
2023-03-06T16:42:48.082Z,4.95
2023-03-06T16:45:15.477Z,4.22
2023-03-06T16:47:43.132Z,3.58
2023-03-06T16:50:17.693Z,5.82
2023-03-06T16:52:44.906Z,3.03
2023-03-06T16:55:12.231Z,1.80
2023-03-06T16:57:39.473Z,2.80
2023-03-06T17:00:06.942Z,2.65
2023-03-06T17:02:34.353Z,3.28
2023-03-06T17:05:01.828Z,5.25
2023-03-06T17:07:29.510Z,5.22
2023-03-06T17:09:56.760Z,18.67
2023-03-06T17:12:23.994Z,14.98
2023-03-06T17:14:51.212Z,66.03
2023-03-06T17:17:18.431Z,41.13
2023-03-06T17:19:49.246Z,47.22
2023-03-06T17:22:17.874Z,34.55
2023-03-06T17:24:45.590Z,157.60
2023-03-06T17:27:12.845Z,62.40
2023-03-06T17:29:40.082Z,64.63
2023-03-06T17:32:07.471Z,12.98
2023-03-06T17:34:34.755Z,11.65
2023-03-06T17:37:02.179Z,8.38
2023-03-06T17:39:33.265Z,6.03
2023-03-06T17:42:01.218Z,4.32
2023-03-06T17:44:28.441Z,4.20
2023-03-06T17:46:55.656Z,5.00
2023-03-06T17:49:23.379Z,5.70
2023-03-06T17:51:50.669Z,6.35
2023-03-06T17:54:17.940Z,3.83
2023-03-06T17:56:45.531Z,4.88
2023-03-06T17:59:12.773Z,5.60
2023-03-06T18:01:40.117Z,6.50
2023-03-06T18:04:07.675Z,6.30
2023-03-06T18:06:34.966Z,4.55
2023-03-06T18:09:02.390Z,7.15
2023-03-06T18:11:30.480Z,8.60
2023-03-06T18:13:57.772Z,14.77
2023-03-06T18:16:25.533Z,10.45
2023-03-06T18:18:53.451Z,7.83
2023-03-06T18:21:21.073Z,11.48
2023-03-06T18:23:48.347Z,6.03
2023-03-06T18:26:16.572Z,5.10
2023-03-06T18:28:44.636Z,5.60
2023-03-06T18:31:18.955Z,5.78
2023-03-06T18:33:47.982Z,5.20
2023-03-06T18:36:15.203Z,6.13
2023-03-06T18:38:45.522Z,6.25
2023-03-06T18:41:13.120Z,8.98
2023-03-06T18:43:40.375Z,6.75
2023-03-06T20:28:39.457Z,4.30
2023-03-06T20:31:07.808Z,4.68
2023-03-06T20:33:35.085Z,5.13
2023-03-06T20:36:02.381Z,4.05
2023-03-06T20:38:29.660Z,4.30
2023-03-06T20:40:57.872Z,4.72
2023-03-06T20:46:03.467Z,3.58
2023-03-06T20:48:30.836Z,5.70
2023-03-06T20:51:05.020Z,3.67
2023-03-06T20:53:32.474Z,4.32
2023-03-06T20:55:59.753Z,5.30
2023-03-06T20:58:30.020Z,4.20
2023-03-06T21:00:57.504Z,3.50
2023-03-06T21:03:25.068Z,6.75
2023-03-06T21:05:52.276Z,5.50
2023-03-06T21:08:19.910Z,3.20
2023-03-06T21:10:47.160Z,6.05
2023-03-06T21:13:14.598Z,5.75
2023-03-06T21:15:42.183Z,3.90
2023-03-06T21:18:09.624Z,4.63
2023-03-06T21:20:40.496Z,4.70
2023-03-06T21:23:07.736Z,4.80
2023-03-06T21:25:34.953Z,5.27
2023-03-06T21:28:02.195Z,5.63
2023-03-06T21:30:29.646Z,3.25
2023-03-06T21:32:56.899Z,3.80
2023-03-06T21:35:24.161Z,3.70
2023-03-06T21:37:51.403Z,5.47
2023-03-06T21:40:18.768Z,4.43
2023-03-06T21:42:45.954Z,3.55
2023-03-06T21:45:13.843Z,4.88
2023-03-06T21:47:41.127Z,4.25
2023-03-06T21:50:08.984Z,4.80
2023-03-06T21:52:36.430Z,4.00
2023-03-06T21:55:03.796Z,3.25
2023-03-06T21:57:31.120Z,4.45
2023-03-06T21:59:58.403Z,5.00
2023-03-06T22:02:25.758Z,3.65
2023-03-06T22:04:53.272Z,5.53
2023-03-06T22:07:20.967Z,3.95
2023-03-06T22:09:48.351Z,6.13
2023-03-06T22:12:15.822Z,6.97
2023-03-06T22:14:44.069Z,4.05
2023-03-06T22:17:11.414Z,5.22
2023-03-06T22:19:38.724Z,3.72
2023-03-06T22:22:06.033Z,5.03
2023-03-06T22:24:33.376Z,4.40
2023-03-06T22:27:00.694Z,3.28
2023-03-06T22:29:27.910Z,3.30
2023-03-06T22:31:55.218Z,3.83
2023-03-06T22:34:22.482Z,4.87
2023-03-06T22:36:49.682Z,3.57
2023-03-06T22:39:17.059Z,5.10
2023-03-06T22:41:44.286Z,2.15
2023-03-06T22:44:15.572Z,4.47
2023-03-06T22:46:42.833Z,2.40
2023-03-06T22:49:10.230Z,5.35
2023-03-06T22:51:40.461Z,4.03
2023-03-06T22:54:07.940Z,3.20
2023-03-06T22:56:36.263Z,2.57
2023-03-06T22:59:03.500Z,3.33
2023-03-06T23:01:31.360Z,3.22
2023-03-06T23:03:59.444Z,4.32
2023-03-06T23:06:27.530Z,2.95
2023-03-06T23:08:56.050Z,2.83
2023-03-06T23:11:23.589Z,5.10
2023-03-06T23:13:50.774Z,4.95
2023-03-06T23:16:18.048Z,2.78
2023-03-06T23:18:45.309Z,4.60
2023-03-06T23:21:13.624Z,3.10
2023-03-06T23:23:40.952Z,3.35
2023-03-06T23:26:08.413Z,3.28
2023-03-06T23:28:35.904Z,3.63
2023-03-06T23:31:09.774Z,3.40
2023-03-06T23:33:38.651Z,4.00
2023-03-06T23:36:06.800Z,3.70
2023-03-06T23:38:34.115Z,5.82
2023-03-06T23:41:04.770Z,3.58
2023-03-06T23:43:32.171Z,6.78
2023-03-06T23:45:59.541Z,4.90
2023-03-06T23:48:27.114Z,4.60
2023-03-06T23:50:54.399Z,6.68
2023-03-06T23:53:21.697Z,7.43
2023-03-06T23:55:49.435Z,6.60
2023-03-06T23:58:17.093Z,7.57
